Armstrong, Texas
Current Conditions -  °F | °C
As of 4:55 PM on Saturday 25 Oct 2014 (Local Time) from KBKS Reporting Station
Clear Clear  
Wind Chill: 85°   Ceiling: Unl
Heat Index: 85°   Visibility: 10mi
Dew Point: 61°   Wind: 8mph
Humidity: 44%   Direction: 70°ENE
Pressure: 30.06"   Gusts: NA
Location:  26.92°N, 97.79°W
Report Text: KBKS 252155Z AUTO 07007KT 10SM CLR 30/16 A3006 RMK AO1 T02950159
Loading
Personal Weather Stations






























Interactive Weather Map
Tropical Storm Tracking
New forecast layout! Learn more

10-Day Weather Forecast

Advertisements
Track Severe Weather on mobile